createdAt,value
2023-06-25T00:00:04.789Z,71.26
2023-06-25T00:01:04.752Z,71.56
2023-06-25T00:02:12.340Z,70.83
2023-06-25T00:03:04.786Z,71.06
2023-06-25T00:04:05.838Z,70.92
2023-06-25T00:05:04.680Z,71.16
2023-06-25T00:06:04.688Z,71.56
2023-06-25T00:07:04.701Z,71.36
2023-06-25T00:08:04.647Z,71.46
2023-06-25T00:09:04.639Z,71.06
2023-06-25T00:10:04.660Z,71.46
2023-06-25T00:11:04.639Z,71.36
2023-06-25T00:12:04.628Z,70.96
2023-06-25T00:13:04.593Z,71.89
2023-06-25T00:14:05.598Z,71.66
2023-06-25T00:15:04.639Z,71.66
2023-06-25T00:16:04.581Z,71.76
2023-06-25T00:17:04.578Z,71.56
2023-06-25T00:18:04.615Z,71.16
2023-06-25T00:19:04.540Z,71.56
2023-06-25T00:20:04.514Z,71.26
2023-06-25T00:21:04.536Z,71.36
2023-06-25T00:22:04.509Z,71.26
2023-06-25T00:23:07.487Z,71.56
2023-06-25T00:24:04.462Z,71.56
2023-06-25T00:25:04.486Z,71.66
2023-06-25T00:26:04.444Z,71.66
2023-06-25T00:27:04.434Z,71.56
2023-06-25T00:28:04.441Z,71.46
2023-06-25T00:29:04.455Z,70.86
2023-06-25T00:30:04.400Z,71.66
2023-06-25T00:31:04.498Z,71.26
2023-06-25T00:32:04.427Z,71.26
2023-06-25T00:33:04.424Z,71.26
2023-06-25T00:34:04.385Z,71.46
2023-06-25T00:35:04.350Z,70.96
2023-06-25T00:36:04.341Z,71.66
2023-06-25T00:37:04.333Z,71.59
2023-06-25T00:38:04.347Z,71.26
2023-06-25T00:39:04.319Z,70.86
2023-06-25T00:40:04.319Z,71.46
2023-06-25T00:41:04.337Z,71.50
2023-06-25T00:42:04.275Z,71.50
2023-06-25T00:43:04.645Z,71.19
2023-06-25T00:44:04.273Z,71.63
2023-06-25T00:45:04.250Z,71.89
2023-06-25T00:46:04.245Z,72.63
2023-06-25T00:47:04.212Z,72.53
2023-06-25T00:48:04.314Z,72.60
2023-06-25T00:49:04.218Z,72.50
2023-06-25T00:50:04.189Z,72.50
2023-06-25T00:51:04.178Z,72.50
2023-06-25T00:52:04.186Z,72.23
2023-06-25T00:53:04.143Z,72.43
2023-06-25T00:54:04.132Z,72.19
2023-06-25T00:55:04.145Z,72.53
2023-06-25T00:56:04.168Z,72.09
2023-06-25T00:57:04.180Z,72.60
2023-06-25T00:58:04.104Z,72.23
2023-06-25T00:59:05.057Z,72.43
2023-06-25T01:00:04.065Z,72.53
2023-06-25T01:01:04.133Z,72.60
2023-06-25T01:02:04.082Z,72.43
2023-06-25T01:03:04.130Z,72.93
2023-06-25T01:04:04.106Z,72.80
2023-06-25T01:05:04.036Z,72.69
2023-06-25T01:06:12.215Z,72.39
2023-06-25T01:07:05.052Z,72.39
2023-06-25T01:08:03.992Z,72.30
2023-06-25T01:09:04.012Z,72.30
2023-06-25T01:10:03.972Z,72.30
2023-06-25T01:11:03.967Z,72.39
2023-06-25T01:12:03.960Z,72.30
2023-06-25T01:13:03.929Z,72.39
2023-06-25T01:14:03.961Z,72.50
2023-06-25T01:15:03.909Z,72.50
2023-06-25T01:16:03.906Z,72.39
2023-06-25T01:17:03.881Z,72.89
2023-06-25T01:18:03.892Z,72.80
2023-06-25T01:19:05.489Z,72.39
2023-06-25T01:20:03.892Z,72.39
2023-06-25T01:21:03.874Z,72.80
2023-06-25T01:22:03.838Z,72.80
2023-06-25T01:23:03.824Z,72.80
2023-06-25T01:24:03.839Z,72.60
2023-06-25T01:25:03.840Z,72.50
2023-06-25T01:26:03.814Z,72.39
2023-06-25T01:27:03.772Z,72.56
2023-06-25T01:28:03.759Z,72.30
2023-06-25T01:29:03.783Z,72.69
2023-06-25T01:30:03.771Z,72.60
2023-06-25T01:31:03.737Z,72.80
2023-06-25T01:32:03.956Z,72.19
2023-06-25T01:33:03.756Z,72.39
2023-06-25T01:34:03.713Z,72.39
2023-06-25T01:35:03.764Z,72.19
2023-06-25T01:36:03.690Z,72.60
2023-06-25T01:37:03.699Z,72.39
2023-06-25T01:38:03.650Z,72.39
2023-06-25T01:39:03.652Z,72.63
2023-06-25T01:40:03.663Z,72.33
2023-06-25T01:41:03.664Z,72.23
2023-06-25T01:42:03.603Z,72.63
2023-06-25T01:43:03.640Z,72.33
2023-06-25T01:44:03.577Z,72.63
2023-06-25T01:45:03.596Z,72.33
2023-06-25T01:46:03.579Z,72.73
2023-06-25T01:47:03.572Z,72.83
2023-06-25T01:48:04.641Z,72.93
2023-06-25T01:49:03.550Z,72.83
2023-06-25T01:50:03.517Z,72.83
2023-06-25T01:51:03.506Z,73.33
2023-06-25T01:52:03.531Z,72.93
2023-06-25T01:53:03.477Z,73.13
2023-06-25T01:54:03.523Z,73.33
2023-06-25T01:55:03.480Z,73.03
2023-06-25T01:56:03.453Z,72.83
2023-06-25T01:57:04.453Z,72.93
2023-06-25T01:58:03.428Z,72.93
2023-06-25T01:59:03.409Z,72.83
2023-06-25T02:00:03.480Z,72.83
2023-06-25T02:01:03.554Z,72.43
2023-06-25T02:02:03.379Z,72.33
2023-06-25T02:03:03.432Z,72.56
2023-06-25T02:04:03.362Z,72.73
2023-06-25T02:05:03.379Z,73.23
2023-06-25T02:06:03.370Z,73.03
2023-06-25T02:07:03.349Z,72.93
2023-06-25T02:08:03.373Z,72.47
2023-06-25T02:09:03.310Z,72.97
2023-06-25T02:10:03.337Z,72.77
2023-06-25T02:11:03.287Z,72.77
2023-06-25T02:12:03.326Z,72.66
2023-06-25T02:13:03.279Z,72.90
2023-06-25T02:14:03.250Z,73.50
2023-06-25T02:15:03.264Z,73.90
2023-06-25T02:16:03.263Z,74.01
2023-06-25T02:17:03.243Z,74.10
2023-06-25T02:18:03.254Z,74.07
2023-06-25T02:19:03.187Z,73.16
2023-06-25T02:20:03.187Z,73.00
2023-06-25T02:21:03.198Z,73.07
2023-06-25T02:22:03.160Z,73.07
2023-06-25T02:23:03.211Z,72.77
2023-06-25T02:24:04.188Z,72.77
2023-06-25T02:25:03.172Z,72.86
2023-06-25T02:26:03.110Z,73.00
2023-06-25T02:27:03.108Z,72.97
2023-06-25T02:28:03.103Z,72.27
2023-06-25T02:29:03.110Z,72.70
2023-06-25T02:30:03.076Z,72.66
2023-06-25T02:31:03.116Z,72.56
2023-06-25T02:32:03.063Z,72.86
2023-06-25T02:33:04.126Z,72.86
2023-06-25T02:34:03.037Z,73.16
2023-06-25T02:35:03.045Z,73.00
2023-06-25T02:36:03.074Z,74.10
2023-06-25T02:37:02.997Z,74.10
2023-06-25T02:38:03.051Z,74.10
2023-06-25T02:39:03.022Z,73.80
2023-06-25T02:40:03.056Z,74.01
2023-06-25T02:41:02.979Z,73.90
2023-06-25T02:42:02.937Z,73.90
2023-06-25T02:43:02.952Z,73.90
2023-06-25T02:44:02.941Z,73.60
2023-06-25T02:45:02.909Z,74.10
2023-06-25T02:46:02.910Z,73.80
2023-06-25T02:47:02.998Z,73.60
2023-06-25T02:48:02.949Z,73.60
2023-06-25T02:49:02.890Z,74.01
2023-06-25T02:50:02.914Z,73.94
2023-06-25T02:51:02.868Z,73.90
2023-06-25T02:52:02.862Z,73.94
2023-06-25T02:53:02.819Z,74.04
2023-06-25T02:54:02.814Z,73.90
2023-06-25T02:55:02.835Z,73.90
2023-06-25T02:56:02.815Z,73.70
2023-06-25T02:57:02.779Z,73.90
2023-06-25T02:58:02.788Z,73.80
2023-06-25T02:59:02.762Z,73.90
2023-06-25T03:00:02.749Z,74.01
2023-06-25T03:01:02.822Z,73.10
2023-06-25T03:02:02.776Z,73.90
2023-06-25T03:03:02.837Z,74.01
2023-06-25T03:04:02.708Z,74.10
2023-06-25T03:05:02.735Z,73.90
2023-06-25T03:06:02.706Z,73.70
2023-06-25T03:07:02.708Z,73.70
2023-06-25T03:08:02.649Z,73.90
2023-06-25T03:09:02.660Z,73.90
2023-06-25T03:10:02.632Z,73.60
2023-06-25T03:11:02.632Z,74.01
2023-06-25T03:12:02.648Z,73.70
2023-06-25T03:13:02.631Z,73.80
2023-06-25T03:14:03.622Z,74.01
2023-06-25T03:15:02.614Z,73.70
2023-06-25T03:16:02.588Z,73.90
2023-06-25T03:17:02.622Z,73.80
2023-06-25T03:18:02.601Z,73.80
2023-06-25T03:19:02.542Z,73.80
2023-06-25T03:20:02.546Z,74.01
2023-06-25T03:21:02.552Z,73.60
2023-06-25T03:22:02.506Z,73.70
2023-06-25T03:23:02.493Z,74.10
2023-06-25T03:24:02.499Z,73.80
2023-06-25T03:25:02.492Z,73.86
2023-06-25T03:26:02.487Z,74.01
2023-06-25T03:27:02.473Z,73.60
2023-06-25T03:28:03.454Z,73.77
2023-06-25T03:29:02.455Z,73.67
2023-06-25T03:30:02.423Z,73.86
2023-06-25T03:31:02.448Z,73.80
2023-06-25T03:32:02.433Z,73.57
2023-06-25T03:33:02.436Z,73.67
2023-06-25T03:34:02.372Z,73.60
2023-06-25T03:35:02.353Z,73.67
2023-06-25T03:36:02.361Z,73.57
2023-06-25T03:37:02.337Z,73.67
2023-06-25T03:38:02.378Z,73.77
2023-06-25T03:39:02.314Z,73.67
2023-06-25T03:40:02.301Z,73.77
2023-06-25T03:41:02.290Z,73.67
2023-06-25T03:42:02.310Z,73.63
2023-06-25T03:43:02.272Z,73.63
2023-06-25T03:44:02.332Z,73.83
2023-06-25T03:45:02.269Z,73.93
2023-06-25T03:46:02.242Z,73.93
2023-06-25T03:47:02.238Z,73.83
2023-06-25T03:48:02.301Z,73.73
2023-06-25T03:49:02.220Z,73.83
2023-06-25T03:50:02.222Z,73.83
2023-06-25T03:51:02.176Z,74.03
2023-06-25T03:52:02.187Z,73.33
2023-06-25T03:53:02.171Z,72.63
2023-06-25T03:54:02.190Z,72.83
2023-06-25T03:55:02.152Z,72.73
2023-06-25T03:56:02.157Z,72.53
2023-06-25T03:57:02.112Z,72.33
2023-06-25T03:58:02.103Z,72.23
2023-06-25T03:59:02.113Z,72.33
2023-06-25T04:00:02.131Z,72.43
2023-06-25T04:01:02.110Z,72.33
2023-06-25T04:02:02.173Z,72.63
2023-06-25T04:03:02.104Z,72.63
2023-06-25T04:04:02.102Z,72.73
2023-06-25T04:05:02.041Z,72.43
2023-06-25T04:06:02.037Z,72.13
2023-06-25T04:07:02.116Z,72.63
2023-06-25T04:08:02.043Z,72.43
2023-06-25T04:09:01.991Z,72.63
2023-06-25T04:10:02.018Z,72.86
2023-06-25T04:11:01.962Z,72.83
2023-06-25T04:12:01.992Z,72.83
2023-06-25T04:13:01.987Z,72.83
2023-06-25T04:14:01.945Z,72.93
2023-06-25T04:15:01.962Z,72.83
2023-06-25T04:16:01.944Z,73.43
2023-06-25T04:17:01.933Z,73.03
2023-06-25T04:18:01.952Z,72.63
2023-06-25T04:19:01.876Z,72.93
2023-06-25T04:20:01.866Z,73.00
2023-06-25T04:21:01.861Z,72.80
2023-06-25T04:22:01.860Z,73.19
2023-06-25T04:23:01.871Z,72.80
2023-06-25T04:24:01.844Z,72.96
2023-06-25T04:25:01.872Z,72.76
2023-06-25T04:26:01.797Z,72.66
2023-06-25T04:27:01.811Z,72.46
2023-06-25T04:28:01.868Z,71.96
2023-06-25T04:29:01.770Z,72.26
2023-06-25T04:30:01.789Z,71.76
2023-06-25T04:31:01.744Z,71.86
2023-06-25T04:32:01.999Z,71.86
2023-06-25T04:33:01.753Z,71.56
2023-06-25T04:34:01.752Z,71.66
2023-06-25T04:35:01.721Z,71.62
2023-06-25T04:36:01.699Z,71.73
2023-06-25T04:37:02.681Z,72.03
2023-06-25T04:38:01.733Z,71.03
2023-06-25T04:39:01.666Z,71.09
2023-06-25T04:40:01.644Z,70.99
2023-06-25T04:41:01.685Z,71.49
2023-06-25T04:42:01.678Z,71.29
2023-06-25T04:43:01.666Z,70.96
2023-06-25T04:44:01.627Z,70.49
2023-06-25T04:45:01.646Z,70.56
2023-06-25T04:46:01.622Z,70.66
2023-06-25T04:47:01.623Z,70.56
2023-06-25T04:48:01.592Z,70.66
2023-06-25T04:49:01.553Z,70.53
2023-06-25T04:50:01.546Z,70.42
2023-06-25T04:51:02.027Z,70.42
2023-06-25T04:52:01.540Z,70.42
2023-06-25T04:53:01.538Z,70.12
2023-06-25T04:54:01.538Z,69.89
2023-06-25T04:55:01.477Z,69.43
2023-06-25T04:56:01.484Z,69.39
2023-06-25T04:57:01.468Z,69.49
2023-06-25T04:58:01.463Z,69.49
2023-06-25T04:59:01.466Z,69.69
2023-06-25T05:00:01.442Z,68.70
2023-06-25T05:01:01.433Z,68.46
2023-06-25T05:02:01.406Z,68.79
2023-06-25T05:03:01.427Z,68.86
2023-06-25T05:04:01.415Z,68.46
2023-06-25T05:05:01.420Z,68.56
2023-06-25T05:06:01.367Z,67.76
2023-06-25T05:07:01.410Z,67.57
2023-06-25T05:08:01.336Z,67.96
2023-06-25T05:09:01.330Z,67.83
2023-06-25T05:10:01.366Z,67.53
2023-06-25T05:11:02.460Z,67.23
2023-06-25T05:12:01.286Z,67.03
2023-06-25T05:13:01.283Z,66.63
2023-06-25T05:14:01.307Z,67.00
2023-06-25T05:15:01.260Z,67.40
2023-06-25T05:16:01.271Z,66.80
2023-06-25T05:17:01.235Z,67.00
2023-06-25T05:18:01.240Z,66.50
2023-06-25T05:19:01.214Z,66.50
2023-06-25T05:20:01.511Z,66.37
2023-06-25T05:21:01.207Z,65.61
2023-06-25T05:22:01.192Z,65.67
2023-06-25T05:23:01.172Z,66.17
2023-06-25T05:24:01.174Z,65.87
2023-06-25T05:25:01.194Z,64.78
2023-06-25T05:26:01.130Z,64.97
2023-06-25T05:27:01.142Z,65.37
2023-06-25T05:28:01.111Z,65.08
2023-06-25T05:29:01.139Z,64.67
2023-06-25T05:30:01.087Z,64.87
2023-06-25T05:31:01.095Z,64.75
2023-06-25T05:32:01.068Z,65.08
2023-06-25T05:33:01.161Z,65.08
2023-06-25T05:34:01.071Z,64.94
2023-06-25T05:35:01.082Z,64.94
2023-06-25T05:36:01.041Z,64.94
2023-06-25T05:37:01.027Z,64.61
2023-06-25T05:38:01.011Z,64.84
2023-06-25T05:39:01.016Z,64.12
2023-06-25T05:40:00.988Z,63.82
2023-06-25T05:41:00.988Z,63.49
2023-06-25T05:42:00.969Z,64.51
2023-06-25T05:43:00.969Z,63.79
2023-06-25T05:44:00.974Z,64.09
2023-06-25T05:45:00.938Z,63.59
2023-06-25T05:46:00.911Z,63.39
2023-06-25T05:47:00.952Z,63.76
2023-06-25T05:48:00.970Z,63.66
2023-06-25T05:49:00.914Z,63.85
2023-06-25T05:50:00.869Z,62.76
2023-06-25T05:51:00.904Z,63.06
2023-06-25T05:52:00.870Z,63.26
2023-06-25T05:53:00.854Z,63.36
2023-06-25T05:54:00.825Z,63.16
2023-06-25T05:55:00.822Z,62.76
2023-06-25T05:56:00.810Z,63.16
2023-06-25T05:57:00.801Z,63.26
2023-06-25T05:58:00.800Z,63.36
2023-06-25T05:59:00.773Z,63.03
2023-06-25T06:00:00.787Z,63.03
2023-06-25T06:01:00.776Z,63.33
2023-06-25T06:02:00.750Z,62.53
2023-06-25T06:03:00.860Z,62.53
2023-06-25T06:04:00.865Z,63.23
2023-06-25T06:05:00.739Z,62.53
2023-06-25T06:06:00.688Z,62.60
2023-06-25T06:07:00.731Z,62.50
2023-06-25T06:08:00.688Z,62.90
2023-06-25T06:09:00.657Z,62.40
2023-06-25T06:10:00.668Z,62.80
2023-06-25T06:11:00.642Z,62.10
2023-06-25T06:12:00.625Z,61.80
2023-06-25T06:13:00.629Z,61.08
2023-06-25T06:14:00.628Z,61.08
2023-06-25T06:15:00.588Z,61.08
2023-06-25T06:16:00.606Z,61.28
2023-06-25T06:17:00.604Z,60.88
2023-06-25T06:18:00.588Z,60.78
2023-06-25T06:19:00.552Z,60.88
2023-06-25T06:20:00.550Z,60.85
2023-06-25T06:21:00.577Z,60.75
2023-06-25T06:22:00.516Z,60.75
2023-06-25T06:23:00.525Z,61.15
2023-06-25T06:24:00.510Z,60.16
2023-06-25T06:25:00.498Z,60.06
2023-06-25T06:26:00.512Z,60.13
2023-06-25T06:27:00.489Z,60.03
2023-06-25T06:28:00.478Z,59.53
2023-06-25T06:29:00.453Z,59.44
2023-06-25T06:30:00.434Z,57.87
2023-06-25T06:31:00.484Z,58.74
2023-06-25T06:32:00.423Z,58.74
2023-06-25T06:33:00.439Z,58.54
2023-06-25T06:34:00.416Z,58.25
2023-06-25T06:35:00.398Z,57.85
2023-06-25T06:36:00.378Z,57.75
2023-06-25T06:37:00.375Z,58.84
2023-06-25T06:38:00.356Z,58.91
2023-06-25T06:39:00.349Z,58.42
2023-06-25T06:40:00.386Z,58.22
2023-06-25T06:41:00.324Z,57.62
2023-06-25T06:42:00.329Z,58.42
2023-06-25T06:43:00.316Z,57.82
2023-06-25T06:44:00.332Z,58.32
2023-06-25T06:45:00.275Z,57.59
2023-06-25T06:46:00.266Z,57.13
2023-06-25T06:47:00.250Z,57.10
2023-06-25T06:48:00.289Z,57.29
2023-06-25T06:49:00.231Z,56.90
2023-06-25T06:50:00.271Z,58.29
2023-06-25T06:51:00.213Z,57.67
2023-06-25T06:52:01.253Z,56.57
2023-06-25T06:53:00.244Z,57.27
2023-06-25T06:54:00.194Z,56.57
2023-06-25T06:55:00.199Z,57.04
2023-06-25T06:56:00.190Z,56.28
2023-06-25T06:57:00.165Z,56.95
2023-06-25T06:58:00.166Z,56.48
2023-06-25T06:59:00.124Z,55.98
2023-06-25T07:00:00.160Z,55.19
2023-06-25T07:01:00.147Z,55.46
2023-06-25T07:02:00.176Z,54.96
2023-06-25T07:03:00.131Z,55.16
2023-06-25T07:04:00.132Z,54.86
2023-06-25T07:05:00.154Z,55.46
2023-06-25T07:06:00.180Z,55.53
2023-06-25T07:07:00.053Z,55.73
2023-06-25T07:08:00.041Z,55.73
2023-06-25T07:09:00.008Z,55.43
2023-06-25T07:10:00.050Z,55.04
2023-06-25T07:11:00.002Z,55.63
2023-06-25T07:11:59.990Z,55.43
2023-06-25T07:13:00.034Z,55.13
2023-06-25T07:13:59.959Z,55.53
2023-06-25T07:14:59.973Z,55.63
2023-06-25T07:15:59.932Z,55.93
2023-06-25T07:16:59.938Z,55.41
2023-06-25T07:17:59.978Z,54.94
2023-06-25T07:18:59.897Z,55.21
2023-06-25T07:19:59.885Z,55.21
2023-06-25T07:20:59.880Z,55.30
2023-06-25T07:21:59.913Z,53.13
2023-06-25T07:22:59.865Z,53.23
2023-06-25T07:23:59.846Z,53.33
2023-06-25T07:24:59.845Z,53.82
2023-06-25T07:25:59.826Z,53.70
2023-06-25T07:26:59.825Z,53.89
2023-06-25T07:27:59.857Z,53.50
2023-06-25T07:28:59.805Z,53.20
2023-06-25T07:29:59.807Z,52.61
2023-06-25T07:30:59.824Z,52.51
2023-06-25T07:31:59.799Z,51.99
2023-06-25T07:32:59.784Z,50.63
2023-06-25T07:33:59.747Z,50.43
2023-06-25T07:34:59.740Z,51.32
2023-06-25T07:35:59.717Z,53.00
2023-06-25T07:36:59.702Z,51.13
2023-06-25T07:37:59.695Z,49.74
2023-06-25T07:38:59.721Z,51.13
2023-06-25T07:39:59.689Z,50.83
2023-06-25T07:40:59.676Z,51.32
2023-06-25T07:41:59.643Z,51.89
2023-06-25T07:42:59.637Z,51.79
2023-06-25T07:43:59.646Z,51.89
2023-06-25T07:44:59.651Z,51.40
2023-06-25T07:45:59.669Z,50.81
2023-06-25T07:46:59.627Z,51.20
2023-06-25T07:47:59.606Z,50.78
2023-06-25T07:48:59.600Z,51.28
2023-06-25T07:49:59.571Z,49.79
2023-06-25T07:50:59.555Z,48.26
2023-06-25T07:51:59.601Z,49.25
2023-06-25T07:52:59.569Z,49.64
2023-06-25T07:53:59.515Z,48.26
2023-06-25T07:55:00.399Z,48.46
2023-06-25T07:56:03.569Z,47.47
2023-06-25T07:56:59.497Z,48.24
2023-06-25T07:57:59.483Z,48.21
2023-06-25T07:58:59.456Z,48.80
2023-06-25T07:59:59.465Z,48.11
2023-06-25T08:00:59.453Z,49.01
2023-06-25T08:01:59.917Z,49.49
2023-06-25T08:02:59.578Z,49.49
2023-06-25T08:03:59.609Z,47.91
2023-06-25T08:04:59.529Z,48.73
2023-06-25T08:05:59.385Z,48.61
2023-06-25T08:06:59.427Z,49.30
2023-06-25T08:07:59.364Z,48.41
2023-06-25T08:08:59.369Z,48.90
2023-06-25T08:10:00.199Z,48.68
2023-06-25T08:10:59.373Z,47.13
2023-06-25T08:11:59.324Z,46.95
2023-06-25T08:12:59.314Z,46.93
2023-06-25T08:13:59.326Z,47.03
2023-06-25T08:14:59.303Z,47.74
2023-06-25T08:15:59.299Z,47.34
2023-06-25T08:16:59.281Z,47.84
2023-06-25T08:17:59.301Z,48.43
2023-06-25T08:18:59.266Z,48.83
2023-06-25T08:19:59.238Z,46.93
2023-06-25T08:20:59.230Z,45.96
2023-06-25T08:21:59.212Z,46.85
2023-06-25T08:22:59.226Z,48.21
2023-06-25T08:23:59.273Z,47.72
2023-06-25T08:24:59.189Z,48.19
2023-06-25T08:25:59.187Z,48.88
2023-06-25T08:26:59.170Z,46.91
2023-06-25T08:27:59.153Z,48.07
2023-06-25T08:28:59.153Z,49.65
2023-06-25T08:29:59.152Z,49.25
2023-06-25T08:30:59.125Z,48.04
2023-06-25T08:31:59.132Z,48.34
2023-06-25T08:32:59.120Z,48.46
2023-06-25T08:33:59.096Z,48.93
2023-06-25T08:34:59.100Z,47.75
2023-06-25T08:35:59.085Z,47.75
2023-06-25T08:36:59.045Z,48.83
2023-06-25T08:37:59.050Z,47.85
2023-06-25T08:38:59.022Z,46.94
2023-06-25T08:39:59.034Z,48.22
2023-06-25T08:40:59.414Z,46.84
2023-06-25T08:41:59.000Z,47.03
2023-06-25T08:42:59.001Z,48.59
2023-06-25T08:43:58.988Z,46.54
2023-06-25T08:44:58.956Z,46.37
2023-06-25T08:45:58.950Z,47.03
2023-06-25T08:46:59.078Z,45.83
2023-06-25T08:47:59.051Z,47.11
2023-06-25T08:48:58.921Z,45.83
2023-06-25T08:49:58.914Z,45.95
2023-06-25T08:50:58.889Z,46.44
2023-06-25T08:51:58.882Z,47.23
2023-06-25T08:52:58.866Z,47.70
2023-06-25T08:53:58.922Z,47.11
2023-06-25T08:54:58.873Z,48.10
2023-06-25T08:55:58.871Z,46.91
2023-06-25T08:56:58.822Z,47.31
2023-06-25T08:57:58.810Z,46.69
2023-06-25T08:58:58.807Z,47.97
2023-06-25T08:59:58.824Z,47.88
2023-06-25T09:00:58.817Z,47.19
2023-06-25T09:01:58.863Z,47.28
2023-06-25T09:02:58.940Z,46.91
2023-06-25T09:03:58.774Z,46.40
2023-06-25T09:04:58.741Z,45.90
2023-06-25T09:05:58.765Z,46.10
2023-06-25T09:07:04.701Z,46.20
2023-06-25T09:07:59.902Z,46.89
2023-06-25T09:08:58.693Z,46.37
2023-06-25T09:09:58.712Z,46.67
2023-06-25T09:10:58.682Z,45.51
2023-06-25T09:11:58.663Z,45.12
2023-06-25T09:12:58.666Z,45.71
2023-06-25T09:13:58.678Z,46.79
2023-06-25T09:14:58.636Z,47.26
2023-06-25T09:15:58.642Z,45.61
2023-06-25T09:16:58.627Z,45.98
2023-06-25T09:17:58.650Z,46.08
2023-06-25T09:18:58.625Z,45.71
2023-06-25T09:19:58.595Z,46.12
2023-06-25T09:20:58.592Z,46.03
2023-06-25T09:21:58.552Z,47.23
2023-06-25T09:22:58.537Z,46.84
2023-06-25T09:23:58.543Z,47.11
2023-06-25T09:24:58.515Z,48.12
2023-06-25T09:25:58.525Z,48.02
2023-06-25T09:26:58.909Z,47.33
2023-06-25T09:27:58.885Z,46.66
2023-06-25T09:28:58.478Z,47.16
2023-06-25T09:29:58.484Z,47.85
2023-06-25T09:30:58.490Z,48.74
2023-06-25T09:31:58.443Z,46.88
2023-06-25T09:32:58.613Z,48.54
2023-06-25T09:33:58.435Z,48.74
2023-06-25T09:34:58.410Z,46.76
2023-06-25T09:35:58.428Z,47.08
2023-06-25T09:36:58.394Z,47.94
2023-06-25T09:37:58.392Z,47.10
2023-06-25T09:38:58.366Z,46.98
2023-06-25T09:39:58.364Z,46.78
2023-06-25T09:40:58.349Z,49.25
2023-06-25T09:41:58.347Z,49.65
2023-06-25T09:42:58.334Z,49.33
2023-06-25T09:43:58.333Z,47.75
2023-06-25T09:44:58.300Z,47.85
2023-06-25T09:45:58.346Z,48.54
2023-06-25T09:46:58.297Z,49.01
2023-06-25T09:47:58.309Z,50.09
2023-06-25T09:48:58.286Z,49.20
2023-06-25T09:49:58.267Z,48.12
2023-06-25T09:50:58.234Z,48.41
2023-06-25T09:51:58.248Z,49.10
2023-06-25T09:52:58.248Z,47.92
2023-06-25T09:53:58.203Z,47.70
2023-06-25T09:54:58.224Z,46.62
2023-06-25T09:55:58.181Z,46.54
2023-06-25T09:56:58.173Z,46.94
2023-06-25T09:57:58.196Z,47.72
2023-06-25T09:58:58.162Z,48.19
2023-06-25T09:59:58.163Z,48.12
2023-06-25T10:00:58.880Z,47.90
2023-06-25T10:01:58.270Z,45.83
2023-06-25T10:03:05.921Z,45.61
2023-06-25T10:03:58.197Z,45.81
2023-06-25T10:04:58.092Z,46.08
2023-06-25T10:05:58.105Z,45.81
2023-06-25T10:06:58.092Z,45.51
2023-06-25T10:07:58.670Z,44.82
2023-06-25T10:08:58.066Z,44.92
2023-06-25T10:09:58.041Z,45.09
2023-06-25T10:10:58.067Z,44.31
2023-06-25T10:11:58.016Z,44.98
2023-06-25T10:12:57.995Z,45.47
2023-06-25T10:13:57.984Z,45.27
2023-06-25T10:14:58.003Z,45.84
2023-06-25T10:15:58.014Z,45.15
2023-06-25T10:16:58.067Z,45.13
2023-06-25T10:17:58.038Z,44.34
2023-06-25T10:18:57.962Z,45.13
2023-06-25T10:19:57.936Z,43.46
2023-06-25T10:20:57.919Z,43.73
2023-06-25T10:21:57.925Z,44.22
2023-06-25T10:22:57.912Z,44.22
2023-06-25T10:23:57.902Z,44.62
2023-06-25T10:24:58.403Z,44.98
2023-06-25T10:25:57.944Z,43.22
2023-06-25T10:26:57.883Z,43.04
2023-06-25T10:27:58.864Z,45.28
2023-06-25T10:28:57.821Z,44.69
2023-06-25T10:29:57.817Z,43.19
2023-06-25T10:30:57.997Z,44.87
2023-06-25T10:31:57.881Z,44.27
2023-06-25T10:32:58.427Z,42.88
2023-06-25T10:33:57.804Z,42.41
2023-06-25T10:34:57.792Z,42.61
2023-06-25T10:35:57.766Z,42.21
2023-06-25T10:36:57.753Z,42.61
2023-06-25T10:37:57.763Z,43.10
2023-06-25T10:38:57.737Z,43.41
2023-06-25T10:39:57.720Z,43.12
2023-06-25T10:40:57.694Z,44.40
2023-06-25T10:41:57.692Z,43.73
2023-06-25T10:42:57.691Z,43.46
2023-06-25T10:43:57.935Z,43.75
2023-06-25T10:44:57.664Z,44.24
2023-06-25T10:45:58.641Z,44.34
2023-06-25T10:46:57.681Z,44.05
2023-06-25T10:47:58.718Z,43.06
2023-06-25T10:48:57.619Z,43.85
2023-06-25T10:49:57.667Z,43.68
2023-06-25T10:50:57.622Z,43.97
2023-06-25T10:51:57.571Z,45.05
2023-06-25T10:52:57.622Z,45.54
2023-06-25T10:53:57.628Z,44.46
2023-06-25T10:54:57.554Z,44.66
2023-06-25T10:55:57.591Z,45.05
2023-06-25T10:56:57.895Z,44.95
2023-06-25T10:57:57.540Z,43.87
2023-06-25T10:58:57.509Z,45.03
2023-06-25T10:59:57.540Z,44.17
2023-06-25T11:00:57.588Z,43.38
2023-06-25T11:01:57.513Z,43.16
2023-06-25T11:02:57.525Z,44.64
2023-06-25T11:03:58.503Z,44.46
2023-06-25T11:04:57.456Z,44.83
2023-06-25T11:05:57.422Z,43.48
2023-06-25T11:06:57.458Z,43.38
2023-06-25T11:07:57.503Z,44.66
2023-06-25T11:08:57.425Z,44.26
2023-06-25T11:09:57.432Z,43.70
2023-06-25T11:10:57.421Z,43.50
2023-06-25T11:11:57.378Z,44.46
2023-06-25T11:12:57.379Z,45.05
2023-06-25T11:13:57.345Z,45.54
2023-06-25T11:14:59.625Z,45.94
2023-06-25T11:15:57.320Z,44.76
2023-06-25T11:16:57.359Z,45.45
2023-06-25T11:17:57.335Z,44.83
2023-06-25T11:18:57.278Z,45.10
2023-06-25T11:19:57.285Z,43.14
2023-06-25T11:20:57.310Z,43.51
2023-06-25T11:21:57.238Z,44.10
2023-06-25T11:22:57.239Z,43.69
2023-06-25T11:23:57.220Z,43.49
2023-06-25T11:24:57.241Z,43.29
2023-06-25T11:25:57.326Z,43.57
2023-06-25T11:26:57.246Z,43.15
2023-06-25T11:27:57.200Z,45.12
2023-06-25T11:28:57.170Z,44.55
2023-06-25T11:29:57.189Z,42.76
2023-06-25T11:30:57.176Z,42.29
2023-06-25T11:31:57.154Z,40.80
2023-06-25T11:32:57.158Z,43.26
2023-06-25T11:33:58.113Z,42.18
2023-06-25T11:34:57.131Z,41.31
2023-06-25T11:35:57.116Z,41.02
2023-06-25T11:36:57.082Z,41.72
2023-06-25T11:37:57.086Z,43.22
2023-06-25T11:38:57.087Z,43.41
2023-06-25T11:39:57.053Z,43.39
2023-06-25T11:40:57.052Z,44.08
2023-06-25T11:41:57.055Z,43.19
2023-06-25T11:42:57.375Z,43.29
2023-06-25T11:43:57.058Z,42.32
2023-06-25T11:44:56.990Z,41.63
2023-06-25T11:45:56.988Z,42.41
2023-06-25T11:46:56.974Z,42.71
2023-06-25T11:47:57.087Z,41.80
2023-06-25T11:48:56.965Z,42.19
2023-06-25T11:49:56.975Z,40.94
2023-06-25T11:50:56.934Z,40.84
2023-06-25T11:51:56.940Z,41.92
2023-06-25T11:52:56.954Z,42.41
2023-06-25T11:53:56.899Z,42.21
2023-06-25T11:54:56.918Z,42.02
2023-06-25T11:55:56.904Z,43.39
2023-06-25T11:56:56.879Z,42.88
2023-06-25T11:57:56.883Z,42.33
2023-06-25T11:58:56.863Z,43.19
2023-06-25T11:59:56.848Z,41.45
2023-06-25T12:00:56.854Z,42.43
2023-06-25T12:01:56.878Z,42.43
2023-06-25T12:02:56.855Z,43.02
2023-06-25T12:03:56.910Z,43.22
2023-06-25T12:04:56.800Z,42.82
2023-06-25T12:05:58.971Z,43.02
2023-06-25T12:06:56.802Z,42.04
2023-06-25T12:07:56.750Z,42.25
2023-06-25T12:08:57.873Z,42.45
2023-06-25T12:09:56.722Z,42.55
2023-06-25T12:10:56.714Z,42.18
2023-06-25T12:11:56.719Z,43.04
2023-06-25T12:12:56.722Z,43.63
2023-06-25T12:13:56.727Z,42.86
2023-06-25T12:14:56.685Z,43.06
2023-06-25T12:15:56.677Z,43.24
2023-06-25T12:16:56.667Z,43.16
2023-06-25T12:17:56.710Z,42.28
2023-06-25T12:18:56.648Z,42.57
2023-06-25T12:19:56.649Z,42.67
2023-06-25T12:20:56.600Z,42.96
2023-06-25T12:21:56.591Z,43.16
2023-06-25T12:22:56.594Z,43.16
2023-06-25T12:23:56.584Z,44.15
2023-06-25T12:24:56.560Z,44.15
2023-06-25T12:25:56.607Z,43.46
2023-06-25T12:26:56.536Z,44.73
2023-06-25T12:27:56.557Z,45.81
2023-06-25T12:28:56.516Z,44.54
2023-06-25T12:29:56.533Z,44.34
2023-06-25T12:30:56.492Z,45.13
2023-06-25T12:31:56.575Z,44.91
2023-06-25T12:32:57.069Z,43.53
2023-06-25T12:33:56.486Z,43.04
2023-06-25T12:34:56.480Z,43.41
2023-06-25T12:35:56.903Z,43.41
2023-06-25T12:36:56.432Z,41.84
2023-06-25T12:37:56.488Z,42.11
2023-06-25T12:38:56.444Z,43.10
2023-06-25T12:39:56.438Z,43.00
2023-06-25T12:40:56.411Z,42.41
2023-06-25T12:41:57.337Z,42.32
2023-06-25T12:42:56.365Z,43.49
2023-06-25T12:43:56.364Z,43.66
2023-06-25T12:44:56.362Z,42.79
2023-06-25T12:45:56.351Z,43.08
2023-06-25T12:46:56.366Z,43.37
2023-06-25T12:47:56.433Z,42.68
2023-06-25T12:48:56.309Z,41.21
2023-06-25T12:49:56.322Z,41.72
2023-06-25T12:50:56.352Z,43.29
2023-06-25T12:51:56.278Z,40.86